Time;durP1;ratioP1;P1;durP2;ratioP2;P2;SDS_P1;SDS_P2;PMS_P1;PMS_P2;Temp;Humidity;BMP_temperature;BMP_pressure;BME280_temperature;BME280_humidity;BME280_pressure;Samples;Min_cycle;Max_cycle;Signal;HPM_P1;HPM_P2
2022/05/29 00:01:57;;;;;;;12.40;4.50;;;24.70;99.90;;;;;;4997349;28;20013;-55
2022/05/29 00:04:23;;;;;;;14.70;5.10;;;24.60;99.90;;;;;;4990317;28;20462;-55
2022/05/29 00:06:52;;;;;;;11.05;4.93;;;24.50;99.90;;;;;;4999380;28;20063;-55
2022/05/29 00:09:39;;;;;;;14.02;5.15;;;24.50;99.90;;;;;;5006315;28;20024;-57
2022/05/29 00:12:07;;;;;;;8.05;4.15;;;24.40;99.90;;;;;;5002346;28;20038;-55
2022/05/29 00:14:34;;;;;;;12.05;4.90;;;24.40;99.90;;;;;;4993865;28;20073;-54
2022/05/29 00:17:00;;;;;;;8.75;4.00;;;24.30;99.90;;;;;;4994455;28;20084;-53
2022/05/29 00:19:26;;;;;;;11.35;4.78;;;24.30;99.90;;;;;;4993539;28;20029;-56
2022/05/29 00:21:52;;;;;;;9.73;4.25;;;24.30;99.90;;;;;;4998329;28;20057;-54
2022/05/29 00:24:18;;;;;;;10.93;3.28;;;24.30;99.90;;;;;;4993803;28;20022;-54
2022/05/29 00:26:44;;;;;;;10.25;3.78;;;24.30;99.90;;;;;;4993944;28;20137;-57
2022/05/29 00:29:10;;;;;;;10.55;3.35;;;24.30;99.90;;;;;;4992288;28;20113;-54
2022/05/29 00:31:36;;;;;;;4.60;2.70;;;24.30;99.90;;;;;;4982649;28;20446;-52
2022/05/29 00:34:02;;;;;;;8.15;3.13;;;24.40;99.90;;;;;;4985722;28;20021;-53
2022/05/29 00:36:33;;;;;;;8.13;3.00;;;24.40;99.90;;;;;;4986343;28;20109;-53
2022/05/29 00:38:59;;;;;;;9.30;3.60;;;24.40;99.90;;;;;;4989476;28;20038;-52
2022/05/29 00:41:31;;;;;;;9.75;2.83;;;24.50;99.90;;;;;;4991337;28;20082;-53
2022/05/29 00:44:30;;;;;;;5.70;2.60;;;24.50;99.90;;;;;;4993931;28;20117;-51
2022/05/29 00:46:57;;;;;;;11.02;2.45;;;24.50;99.90;;;;;;4953112;28;20051;-53
2022/05/29 00:49:36;;;;;;;10.40;2.28;;;24.60;99.90;;;;;;4988809;28;20081;-53
2022/05/29 00:52:07;;;;;;;9.80;2.42;;;24.60;99.90;;;;;;4986683;28;20046;-54
2022/05/29 00:54:42;;;;;;;7.07;2.40;;;24.60;99.90;;;;;;4988969;28;20391;-52
2022/05/29 00:57:12;;;;;;;7.53;1.90;;;24.60;99.90;;;;;;4993026;28;20413;-52
2022/05/29 00:59:38;;;;;;;6.68;2.25;;;24.60;99.90;;;;;;5003929;23;20046;-56
2022/05/29 01:02:04;;;;;;;4.72;1.80;;;24.60;99.90;;;;;;4995059;28;20121;-60
2022/05/29 01:04:33;;;;;;;8.73;2.72;;;24.60;99.90;;;;;;4994720;28;20022;-60
2022/05/29 01:07:08;;;;;;;6.18;2.47;;;24.60;99.90;;;;;;5007208;28;20053;-60
2022/05/29 01:09:40;;;;;;;8.23;2.83;;;24.50;99.90;;;;;;4987881;28;20026;-57
2022/05/29 01:12:20;;;;;;;6.55;2.70;;;24.50;99.90;;;;;;5010737;28;20536;-59
2022/05/29 01:15:08;;;;;;;7.97;2.67;;;24.60;99.90;;;;;;5004046;28;20054;-58
2022/05/29 01:17:51;;;;;;;9.45;2.50;;;24.50;99.90;;;;;;4993289;28;20474;-57
2022/05/29 01:21:10;;;;;;;4.80;2.55;;;24.60;99.90;;;;;;5004102;28;20561;-58
2022/05/29 01:23:55;;;;;;;12.05;2.60;;;24.50;99.90;;;;;;4913964;29;20728;-56
2022/05/29 01:26:39;;;;;;;5.68;1.90;;;24.50;99.90;;;;;;4996872;28;20152;-56
2022/05/29 01:29:08;;;;;;;5.03;1.75;;;24.40;99.90;;;;;;4999829;28;20030;-60
2022/05/29 01:31:56;;;;;;;8.50;2.15;;;24.30;99.90;;;;;;5006524;28;20046;-53
2022/05/29 01:34:35;;;;;;;7.43;2.17;;;24.30;99.90;;;;;;4992910;28;20521;-57
2022/05/29 01:37:07;;;;;;;8.20;1.88;;;24.20;99.90;;;;;;5001670;28;20030;-57
2022/05/29 01:39:37;;;;;;;4.00;1.92;;;24.10;99.90;;;;;;5008712;28;20430;-54
2022/05/29 01:42:07;;;;;;;6.57;1.95;;;24.10;99.90;;;;;;5005617;28;20053;-53
2022/05/29 01:44:54;;;;;;;5.80;1.60;;;24.00;99.90;;;;;;4993188;28;20022;-53
2022/05/29 01:47:23;;;;;;;7.82;1.63;;;24.00;99.90;;;;;;4985174;28;20014;-59
2022/05/29 01:49:53;;;;;;;6.00;1.38;;;23.90;99.90;;;;;;4985558;28;20034;-55
2022/05/29 01:52:32;;;;;;;7.03;1.60;;;23.90;99.90;;;;;;4983005;28;20035;-52
2022/05/29 01:55:20;;;;;;;3.75;1.70;;;23.80;99.90;;;;;;4992805;28;20064;-52
2022/05/29 01:57:51;;;;;;;5.68;1.90;;;23.80;99.90;;;;;;4987856;28;20461;-52
2022/05/29 02:00:20;;;;;;;4.72;1.50;;;23.70;99.90;;;;;;4989772;23;20109;-51
2022/05/29 02:02:56;;;;;;;5.32;1.65;;;23.70;99.90;;;;;;4948033;28;20131;-49
2022/05/29 02:05:34;;;;;;;5.22;1.60;;;23.70;99.90;;;;;;4964154;28;20085;-52
2022/05/29 02:08:12;;;;;;;;;;;23.60;99.90;;;;;;4963496;28;20026;-53
2022/05/29 02:10:43;;;;;;;4.43;1.70;;;23.50;99.90;;;;;;4966189;28;19914;-53
2022/05/29 02:13:20;;;;;;;8.30;2.30;;;23.50;99.90;;;;;;4963798;28;20031;-53
2022/05/29 02:15:57;;;;;;;9.25;2.38;;;23.50;99.90;;;;;;4965877;28;20026;-51
2022/05/29 02:18:49;;;;;;;3.78;1.90;;;23.50;99.90;;;;;;4961979;28;20024;-51
2022/05/29 02:21:22;;;;;;;7.85;2.10;;;23.50;99.90;;;;;;4955638;28;20387;-51
2022/05/29 02:23:55;;;;;;;4.72;2.03;;;23.50;99.90;;;;;;4952467;28;20030;-51
2022/05/29 02:26:27;;;;;;;5.43;1.67;;;23.50;99.90;;;;;;4954668;28;20020;-51
2022/05/29 02:29:05;;;;;;;9.38;2.60;;;23.60;99.90;;;;;;4958791;28;20027;-51
2022/05/29 02:32:01;;;;;;;9.70;2.70;;;23.60;99.90;;;;;;4959746;28;20036;-51
2022/05/29 02:34:42;;;;;;;5.53;2.15;;;23.70;99.90;;;;;;4961291;28;20462;-52
2022/05/29 02:37:34;;;;;;;6.85;2.38;;;23.60;99.90;;;;;;4957620;28;20055;-52
2022/05/29 02:40:02;;;;;;;5.45;2.05;;;23.70;99.90;;;;;;4951728;28;20054;-52
2022/05/29 02:42:51;;;;;;;6.53;2.60;;;23.70;99.90;;;;;;4963765;28;20054;-52
2022/05/29 02:45:35;;;;;;;7.05;2.78;;;23.70;99.90;;;;;;4953299;28;20019;-52
2022/05/29 02:48:33;;;;;;;4.25;2.45;;;23.70;99.90;;;;;;4953239;28;20031;-52
2022/05/29 02:51:02;;;;;;;8.60;3.30;;;23.60;99.90;;;;;;4887062;28;20107;-52
2022/05/29 02:53:27;;;;;;;6.85;3.03;;;23.60;99.90;;;;;;4953069;28;20114;-53
2022/05/29 02:55:53;;;;;;;6.50;2.20;;;23.60;99.90;;;;;;4953470;28;20566;-52
2022/05/29 02:58:29;;;;;;;8.95;3.67;;;23.60;99.90;;;;;;4953267;28;20111;-52
2022/05/29 03:01:48;;;;;;;7.82;3.20;;;23.50;99.90;;;;;;4953554;28;20047;-52
2022/05/29 03:04:32;;;;;;;8.32;2.90;;;23.50;99.90;;;;;;4931619;29;20035;-52
2022/05/29 03:07:27;;;;;;;9.07;3.47;;;23.50;99.90;;;;;;4953319;28;20034;-52
2022/05/29 03:09:55;;;;;;;7.43;3.10;;;23.50;99.90;;;;;;4942778;28;20054;-51
2022/05/29 03:12:39;;;;;;;6.25;3.17;;;23.50;99.90;;;;;;4953320;28;20042;-52
2022/05/29 03:15:34;;;;;;;6.90;3.00;;;23.50;99.90;;;;;;4953081;28;20028;-51
2022/05/29 03:18:15;;;;;;;4.82;3.05;;;23.50;99.90;;;;;;4953040;28;20041;-52
2022/05/29 03:21:03;;;;;;;9.75;3.38;;;23.50;99.90;;;;;;4953184;29;20046;-51
2022/05/29 03:23:32;;;;;;;5.18;2.70;;;23.60;99.90;;;;;;4952503;28;20020;-52
2022/05/29 03:26:08;;;;;;;6.82;2.53;;;23.70;99.90;;;;;;4951496;28;20438;-52
2022/05/29 03:28:46;;;;;;;7.00;2.53;;;23.70;99.90;;;;;;4952789;28;20502;-52
2022/05/29 03:31:18;;;;;;;7.18;2.60;;;23.70;99.90;;;;;;4953013;28;20391;-51
2022/05/29 03:33:46;;;;;;;8.05;3.03;;;23.70;99.90;;;;;;4953233;28;20360;-52
2022/05/29 03:36:14;;;;;;;10.70;2.60;;;23.70;99.90;;;;;;4953184;29;20539;-51
2022/05/29 03:38:40;;;;;;;6.07;2.28;;;23.80;99.90;;;;;;4952924;29;20038;-52
2022/05/29 03:41:27;;;;;;;5.45;2.58;;;23.80;99.90;;;;;;4952952;29;20027;-52
2022/05/29 03:43:53;;;;;;;6.75;1.98;;;23.80;99.90;;;;;;4953113;28;20026;-52
2022/05/29 03:46:18;;;;;;;6.38;2.05;;;23.80;99.90;;;;;;4956173;29;20035;-52
2022/05/29 03:48:44;;;;;;;7.18;2.85;;;23.90;99.90;;;;;;4956843;29;20034;-52
2022/05/29 03:51:10;;;;;;;5.38;2.38;;;23.80;99.90;;;;;;4955392;28;20046;-52
2022/05/29 03:53:36;;;;;;;4.00;1.98;;;23.80;99.90;;;;;;4956810;28;20102;-52
2022/05/29 03:56:03;;;;;;;3.25;2.00;;;23.80;99.90;;;;;;4956861;29;20372;-51
2022/05/29 03:58:28;;;;;;;7.85;3.05;;;23.80;99.90;;;;;;4956626;28;20027;-52
2022/05/29 04:00:54;;;;;;;5.95;2.65;;;23.90;99.90;;;;;;4957645;29;20117;-52
2022/05/29 04:03:20;;;;;;;7.75;2.63;;;23.90;99.90;;;;;;4956612;28;20027;-51
2022/05/29 04:05:46;;;;;;;4.50;2.30;;;23.90;99.90;;;;;;4956501;29;20024;-51
2022/05/29 04:13:43;;;;;;;5.38;2.67;;;23.90;99.90;;;;;;4956587;29;20102;-52
2022/05/29 04:16:09;;;;;;;9.27;5.63;;;23.90;99.90;;;;;;4956478;29;20035;-52
2022/05/29 04:18:36;;;;;;;10.23;6.45;;;23.90;99.90;;;;;;4956160;28;20027;-51
2022/05/29 04:21:02;;;;;;;6.13;3.73;;;23.90;99.90;;;;;;4971090;28;20455;-53
2022/05/29 04:23:28;;;;;;;9.60;2.42;;;23.90;99.90;;;;;;4956514;28;20023;-53
2022/05/29 04:25:53;;;;;;;13.25;9.68;;;23.90;99.90;;;;;;4956433;28;20394;-53
2022/05/29 04:28:19;;;;;;;8.98;6.10;;;23.90;99.90;;;;;;4956198;28;20476;-54
2022/05/29 04:30:46;;;;;;;9.55;4.53;;;23.90;99.90;;;;;;4954726;29;20391;-53
2022/05/29 04:33:11;;;;;;;7.93;2.80;;;24.00;99.90;;;;;;4956268;28;20039;-54
2022/05/29 04:35:44;;;;;;;4.85;2.53;;;24.00;99.90;;;;;;4956091;29;20103;-53
2022/05/29 04:38:11;;;;;;;8.25;5.75;;;23.90;99.90;;;;;;4955933;28;20110;-53
2022/05/29 04:40:38;;;;;;;11.87;2.73;;;23.90;99.90;;;;;;4955932;29;20019;-54
2022/05/29 04:43:04;;;;;;;15.25;8.07;;;23.80;99.90;;;;;;4955821;28;20098;-54
2022/05/29 04:45:31;;;;;;;18.45;13.75;;;23.80;99.90;;;;;;4956043;28;20031;-53
2022/05/29 04:47:57;;;;;;;15.88;5.32;;;23.80;99.90;;;;;;4955902;29;20483;-53
2022/05/29 04:50:23;;;;;;;9.23;3.72;;;23.70;99.90;;;;;;4955753;28;20035;-53
2022/05/29 04:52:52;;;;;;;5.20;3.00;;;23.70;99.90;;;;;;4955766;28;20035;-53
2022/05/29 04:55:18;;;;;;;7.53;3.08;;;23.60;99.90;;;;;;4955260;28;20055;-53
2022/05/29 04:57:44;;;;;;;12.45;3.47;;;23.50;99.90;;;;;;4955677;29;20035;-53
2022/05/29 05:00:10;;;;;;;24.77;4.63;;;23.50;99.90;;;;;;4955499;29;20403;-53
2022/05/29 05:02:37;;;;;;;8.45;3.85;;;23.50;99.90;;;;;;4955495;28;20077;-53
2022/05/29 05:05:04;;;;;;;7.73;3.47;;;23.50;99.90;;;;;;4955568;28;20023;-53
2022/05/29 05:07:30;;;;;;;8.82;3.78;;;23.50;99.90;;;;;;4955654;28;20763;-53
2022/05/29 05:09:55;;;;;;;11.93;3.53;;;23.50;99.90;;;;;;4955397;28;20051;-52
2022/05/29 05:12:21;;;;;;;13.80;3.55;;;23.60;99.90;;;;;;4955197;28;20039;-53
2022/05/29 05:14:47;;;;;;;11.50;3.33;;;23.60;99.90;;;;;;4955346;28;20034;-53
2022/05/29 05:17:13;;;;;;;7.32;3.63;;;23.70;99.90;;;;;;4955315;29;20031;-54
2022/05/29 05:19:39;;;;;;;6.88;3.10;;;23.70;99.90;;;;;;4955231;28;20024;-54
2022/05/29 05:22:08;;;;;;;9.07;3.20;;;23.80;99.90;;;;;;4955254;29;20205;-53
2022/05/29 05:24:37;;;;;;;14.07;3.17;;;23.80;99.90;;;;;;4955077;28;20027;-53
2022/05/29 05:27:07;;;;;;;10.57;2.92;;;23.80;99.90;;;;;;4955146;28;20086;-53
2022/05/29 05:29:33;;;;;;;6.25;3.05;;;23.80;99.90;;;;;;4955068;29;20030;-54
2022/05/29 05:31:59;;;;;;;8.50;2.80;;;23.80;99.90;;;;;;4955016;28;20035;-53
2022/05/29 05:34:27;;;;;;;9.38;3.38;;;23.80;99.90;;;;;;4955027;29;20024;-54
2022/05/29 05:36:53;;;;;;;12.25;2.95;;;23.80;99.90;;;;;;4955016;28;20066;-53
2022/05/29 05:39:20;;;;;;;17.35;3.63;;;23.80;99.90;;;;;;4954903;29;20046;-53
2022/05/29 05:41:46;;;;;;;14.82;3.08;;;23.80;99.90;;;;;;4955034;29;20047;-53
2022/05/29 05:44:12;;;;;;;5.82;2.97;;;23.80;99.90;;;;;;4954851;28;20019;-53
2022/05/29 05:46:47;;;;;;;18.40;2.95;;;23.80;99.90;;;;;;4954943;28;20368;-53
2022/05/29 05:49:16;;;;;;;8.90;3.17;;;23.80;99.90;;;;;;4954902;28;20060;-53
2022/05/29 05:51:42;;;;;;;8.27;2.83;;;23.80;99.90;;;;;;4954472;29;20495;-52
2022/05/29 05:54:08;;;;;;;9.00;3.20;;;23.70;99.90;;;;;;4954639;28;20027;-52
2022/05/29 05:56:34;;;;;;;8.65;2.88;;;23.70;99.90;;;;;;4954611;29;20553;-52
2022/05/29 05:59:00;;;;;;;7.47;2.30;;;23.70;99.90;;;;;;4954802;29;20011;-52
2022/05/29 06:01:26;;;;;;;8.23;3.05;;;23.70;99.90;;;;;;4954321;28;20106;-53
2022/05/29 06:03:51;;;;;;;7.95;2.58;;;23.60;99.90;;;;;;4954574;28;20027;-53
2022/05/29 06:06:17;;;;;;;7.97;2.75;;;23.60;99.90;;;;;;4954288;29;20423;-53
2022/05/29 06:08:43;;;;;;;5.03;2.30;;;23.60;99.90;;;;;;4953537;28;20035;-53
2022/05/29 06:11:09;;;;;;;11.18;3.60;;;23.60;99.90;;;;;;4954457;28;20498;-53
2022/05/29 06:13:35;;;;;;;9.02;2.50;;;23.60;99.90;;;;;;4954323;28;20046;-52
2022/05/29 06:16:02;;;;;;;9.68;3.00;;;23.60;99.90;;;;;;4954301;28;20368;-52
2022/05/29 06:18:28;;;;;;;11.20;2.78;;;23.60;99.90;;;;;;4954210;28;20028;-52
2022/05/29 06:21:00;;;;;;;5.75;2.10;;;23.70;99.90;;;;;;4954109;28;20039;-52
2022/05/29 06:23:26;;;;;;;4.70;2.50;;;23.70;99.90;;;;;;4954057;29;20039;-52
2022/05/29 06:25:53;;;;;;;8.13;2.60;;;23.70;99.90;;;;;;4953978;29;20071;-53
2022/05/29 06:28:18;;;;;;;9.77;2.20;;;23.80;99.90;;;;;;4953859;29;20114;-54
2022/05/29 06:30:44;;;;;;;7.20;2.08;;;23.80;99.90;;;;;;4953880;29;21962;-53
2022/05/29 06:33:11;;;;;;;7.22;2.25;;;23.90;99.90;;;;;;4953959;29;20027;-55
2022/05/29 06:35:37;;;;;;;10.90;3.43;;;23.90;99.90;;;;;;4953814;28;20352;-54
2022/05/29 06:38:03;;;;;;;12.45;3.20;;;24.00;99.90;;;;;;4954116;29;20266;-54
2022/05/29 06:40:29;;;;;;;14.30;3.55;;;24.00;99.90;;;;;;4953739;28;20019;-55
2022/05/29 06:42:55;;;;;;;7.30;3.35;;;24.10;99.90;;;;;;4953763;29;20372;-54
2022/05/29 06:45:21;;;;;;;5.03;2.22;;;24.10;99.90;;;;;;4953682;28;20087;-54
2022/05/29 06:47:46;;;;;;;9.85;2.47;;;24.20;99.90;;;;;;4953482;29;20106;-54
2022/05/29 06:50:12;;;;;;;10.52;3.17;;;24.20;99.90;;;;;;4953492;28;20027;-54
2022/05/29 06:52:39;;;;;;;9.45;2.70;;;24.20;99.90;;;;;;4953626;29;20042;-54
2022/05/29 06:55:05;;;;;;;11.25;3.80;;;24.30;99.90;;;;;;4953746;29;20094;-54
2022/05/29 06:57:37;;;;;;;11.50;3.97;;;24.30;99.90;;;;;;4953622;29;20035;-54
2022/05/29 07:08:44;;;;;;;7.00;2.67;;;24.30;99.90;;;;;;4931920;29;20071;-54
2022/05/29 07:11:17;;;;;;;11.82;3.38;;;24.30;99.90;;;;;;4943879;29;20062;-55
2022/05/29 07:13:43;;;;;;;8.75;3.10;;;24.20;99.90;;;;;;4953326;28;20394;-54
2022/05/29 07:16:09;;;;;;;7.38;2.90;;;24.20;99.90;;;;;;4953328;29;20031;-54
2022/05/29 07:18:36;;;;;;;9.70;2.60;;;24.20;99.90;;;;;;4953406;28;20028;-54
2022/05/29 07:21:04;;;;;;;10.43;3.13;;;24.30;99.90;;;;;;4953129;28;20468;-54
2022/05/29 07:23:30;;;;;;;9.57;2.80;;;24.30;99.90;;;;;;4953225;29;20444;-54
2022/05/29 07:25:57;;;;;;;11.85;2.60;;;24.30;99.90;;;;;;4953160;29;20106;-54
2022/05/29 07:28:24;;;;;;;7.47;3.47;;;24.40;99.90;;;;;;4953256;28;20034;-55
2022/05/29 07:30:51;;;;;;;12.00;3.70;;;24.30;99.90;;;;;;4953306;28;20027;-54
2022/05/29 07:33:17;;;;;;;13.23;3.60;;;24.30;99.90;;;;;;4953148;28;20063;-54
2022/05/29 07:35:43;;;;;;;6.47;2.63;;;24.30;99.90;;;;;;4953045;28;20027;-54
2022/05/29 07:38:10;;;;;;;8.20;3.15;;;24.30;99.90;;;;;;4953227;29;20027;-54
2022/05/29 07:40:36;;;;;;;12.50;3.13;;;24.30;99.90;;;;;;4953152;29;20031;-54
2022/05/29 07:43:21;;;;;;;14.45;3.40;;;24.30;99.90;;;;;;4952962;28;20031;-54
2022/05/29 07:45:54;;;;;;;10.02;2.97;;;24.30;99.90;;;;;;4952933;29;20475;-54
2022/05/29 07:48:23;;;;;;;8.00;2.65;;;24.30;99.90;;;;;;4952811;28;20023;-54
2022/05/29 07:50:50;;;;;;;13.18;3.17;;;24.30;99.90;;;;;;4953156;29;20086;-54
2022/05/29 07:53:16;;;;;;;10.77;3.57;;;24.30;99.90;;;;;;4952970;29;20044;-54
2022/05/29 07:55:46;;;;;;;12.82;3.45;;;24.30;99.90;;;;;;4952940;28;20023;-55
2022/05/29 07:58:13;;;;;;;13.95;2.63;;;24.30;99.90;;;;;;4952997;29;20403;-54
2022/05/29 08:00:42;;;;;;;4.55;2.50;;;24.40;99.90;;;;;;4953192;28;20380;-54
2022/05/29 08:03:08;;;;;;;9.23;2.30;;;24.50;99.90;;;;;;4953181;28;20471;-54
2022/05/29 08:05:36;;;;;;;8.75;2.42;;;24.60;99.90;;;;;;4952878;29;20431;-54
2022/05/29 08:08:08;;;;;;;8.75;2.50;;;24.70;99.90;;;;;;4952901;29;20042;-54
2022/05/29 08:10:35;;;;;;;10.35;2.20;;;24.70;99.90;;;;;;4952728;28;20046;-54
2022/05/29 08:13:02;;;;;;;9.38;2.55;;;24.80;99.90;;;;;;4952792;28;20035;-54
2022/05/29 08:15:27;;;;;;;8.90;2.40;;;24.80;99.90;;;;;;4952707;28;20427;-54
2022/05/29 08:17:53;;;;;;;7.22;2.25;;;24.80;99.90;;;;;;4951512;29;20103;-54
2022/05/29 08:20:19;;;;;;;7.68;2.60;;;24.80;99.90;;;;;;4952669;29;20110;-54
2022/05/29 08:22:45;;;;;;;12.65;2.80;;;24.70;99.90;;;;;;4952639;29;20038;-54
2022/05/29 08:30:44;;;;;;;12.23;4.97;;;24.60;99.90;;;;;;4953487;28;20511;-55
2022/05/29 08:33:20;;;;;;;8.88;2.67;;;24.70;99.90;;;;;;4956235;28;20055;-54
2022/05/29 08:36:10;;;;;;;7.85;2.80;;;24.70;99.90;;;;;;4956035;28;20023;-54
2022/05/29 08:38:40;;;;;;;9.13;2.88;;;24.70;99.90;;;;;;4955925;28;20031;-54
2022/05/29 08:41:10;;;;;;;19.35;3.13;;;24.70;99.90;;;;;;4956171;29;20031;-55
2022/05/29 08:43:39;;;;;;;9.98;2.55;;;24.80;99.90;;;;;;4955798;29;20103;-55
2022/05/29 08:46:28;;;;;;;9.13;2.83;;;24.80;99.90;;;;;;4955942;29;20047;-55
2022/05/29 08:48:55;;;;;;;12.27;2.80;;;24.90;99.90;;;;;;4955865;29;20023;-55
2022/05/29 08:51:57;;;;;;;12.40;2.70;;;25.00;99.90;;;;;;4955669;28;20027;-54
2022/05/29 08:54:33;;;;;;;8.23;2.78;;;25.00;99.90;;;;;;4934170;29;20032;-55
2022/05/29 08:57:18;;;;;;;7.63;2.40;;;25.10;99.90;;;;;;4952660;28;20043;-54
2022/05/29 08:59:52;;;;;;;17.40;4.13;;;25.20;99.90;;;;;;4955489;28;20130;-54
2022/05/29 09:02:40;;;;;;;10.65;2.70;;;25.10;99.90;;;;;;4955592;28;20055;-54
2022/05/29 09:05:24;;;;;;;8.63;2.95;;;25.10;99.90;;;;;;4955457;28;20070;-54
2022/05/29 09:07:51;;;;;;;10.68;4.55;;;25.10;99.90;;;;;;4955430;29;20034;-54
2022/05/29 09:10:27;;;;;;;5.10;3.03;;;25.10;99.90;;;;;;4955493;28;20066;-54
2022/05/29 09:12:54;;;;;;;7.75;2.22;;;25.10;99.90;;;;;;4955308;29;20043;-55
2022/05/29 09:15:49;;;;;;;6.93;2.25;;;25.10;99.90;;;;;;4955339;28;20050;-55
2022/05/29 09:18:28;;;;;;;6.68;2.20;;;25.10;99.90;;;;;;4954583;29;20109;-55
2022/05/29 09:21:03;;;;;;;8.93;2.42;;;25.00;99.90;;;;;;4955328;28;20027;-55
2022/05/29 09:23:34;;;;;;;11.40;2.30;;;25.00;99.90;;;;;;4955196;28;20031;-54
2022/05/29 09:26:04;;;;;;;9.70;2.38;;;25.00;99.90;;;;;;4955126;28;20093;-54
2022/05/29 09:28:35;;;;;;;8.23;2.17;;;25.00;99.90;;;;;;4955328;28;20357;-55
2022/05/29 09:31:17;;;;;;;9.25;2.35;;;25.00;99.90;;;;;;4954944;28;20035;-54
2022/05/29 09:33:43;;;;;;;7.38;2.67;;;25.10;99.90;;;;;;4955156;29;20038;-55
2022/05/29 09:36:50;;;;;;;8.52;1.88;;;25.00;99.90;;;;;;4954936;29;20023;-54
2022/05/29 09:39:27;;;;;;;;;;;25.10;99.90;;;;;;4955332;28;20087;-55
2022/05/29 09:42:08;;;;;;;13.98;3.78;;;25.00;99.90;;;;;;4954640;28;19914;-54
2022/05/29 09:44:34;;;;;;;12.10;3.30;;;25.00;99.90;;;;;;4953599;28;20419;-54
2022/05/29 09:50:11;;;;;;;22.15;9.02;;;24.80;99.90;;;;;;4955110;29;20518;-55
2022/05/29 09:52:43;;;;;;;11.57;4.88;;;24.80;99.90;;;;;;4954564;28;20074;-54
2022/05/29 09:55:36;;;;;;;14.80;5.32;;;24.80;99.90;;;;;;4954575;28;20015;-54
2022/05/29 09:58:09;;;;;;;11.88;5.72;;;24.70;99.90;;;;;;4954522;28;20035;-54
2022/05/29 10:00:42;;;;;;;15.75;5.43;;;24.70;99.90;;;;;;4954360;29;20047;-55
2022/05/29 10:03:11;;;;;;;14.13;8.32;;;24.60;99.90;;;;;;4954463;28;20070;-52
2022/05/29 10:05:42;;;;;;;14.60;6.43;;;24.60;99.90;;;;;;4954537;28;20023;-54
2022/05/29 10:08:26;;;;;;;12.43;5.22;;;24.60;99.90;;;;;;4954273;29;20480;-54
2022/05/29 10:10:52;;;;;;;15.90;5.15;;;24.60;99.90;;;;;;4954332;29;20356;-54
2022/05/29 10:13:38;;;;;;;17.00;4.80;;;24.60;99.90;;;;;;4954211;28;20094;-54
2022/05/29 10:16:04;;;;;;;14.93;6.10;;;24.60;99.90;;;;;;4954092;28;20023;-54
2022/05/29 10:18:43;;;;;;;11.00;4.22;;;24.50;99.90;;;;;;4954178;28;20056;-54
2022/05/29 10:21:16;;;;;;;14.05;4.72;;;24.50;99.90;;;;;;4954058;28;20049;-54
2022/05/29 10:23:49;;;;;;;7.70;3.72;;;24.50;99.90;;;;;;4952584;28;20035;-53
2022/05/29 10:26:36;;;;;;;13.80;5.82;;;24.60;99.90;;;;;;4954162;28;20037;-53
2022/05/29 10:29:31;;;;;;;14.43;4.95;;;24.70;99.90;;;;;;4953902;28;20502;-54
2022/05/29 10:32:00;;;;;;;18.80;6.90;;;24.80;99.90;;;;;;4953322;28;20175;-53
2022/05/29 10:34:29;;;;;;;10.27;4.05;;;24.90;99.90;;;;;;4953741;28;20106;-53
2022/05/29 10:36:56;;;;;;;12.75;4.53;;;24.90;99.90;;;;;;4953661;29;20023;-55
2022/05/29 10:39:31;;;;;;;12.65;3.95;;;25.00;99.90;;;;;;4953759;29;20023;-54
2022/05/29 10:41:58;;;;;;;10.10;4.13;;;25.00;99.90;;;;;;4953670;29;20047;-54
2022/05/29 10:44:44;;;;;;;13.82;3.85;;;25.00;99.90;;;;;;4953455;28;20023;-52
2022/05/29 10:47:16;;;;;;;13.75;3.65;;;25.10;99.90;;;;;;4953596;29;20070;-51
2022/05/29 10:49:48;;;;;;;12.52;3.75;;;25.10;99.90;;;;;;4953428;28;20113;-51
2022/05/29 10:52:56;;;;;;;12.13;4.47;;;25.10;99.90;;;;;;4953530;29;20042;-52
2022/05/29 10:55:55;;;;;;;11.77;4.55;;;25.10;99.90;;;;;;4952890;28;20368;-54
2022/05/29 10:58:45;;;;;;;11.50;3.50;;;25.10;99.90;;;;;;4953248;28;20079;-55
2022/05/29 11:03:17;;;;;;;14.25;5.32;;;25.20;99.90;;;;;;4953171;28;20106;-55
2022/05/29 11:04:15;;;;;;;8.93;2.65;;;25.20;99.90;;;;;;4953323;28;20031;-54
2022/05/29 11:06:43;;;;;;;14.70;4.18;;;25.30;99.90;;;;;;4953259;29;20507;-54
2022/05/29 11:09:33;;;;;;;16.67;7.10;;;25.30;99.90;;;;;;4951719;28;20027;-54
2022/05/29 11:12:02;;;;;;;17.42;10.93;;;25.30;99.90;;;;;;4953420;28;20077;-55
2022/05/29 11:14:55;;;;;;;11.15;3.45;;;25.20;99.90;;;;;;4951937;29;20012;-54
2022/05/29 11:17:27;;;;;;;11.07;6.15;;;25.30;99.90;;;;;;4946896;29;20046;-56
2022/05/29 11:20:05;;;;;;;8.60;4.10;;;25.20;99.90;;;;;;4953083;29;20086;-53
2022/05/29 11:22:55;;;;;;;12.27;5.03;;;25.10;99.90;;;;;;4952027;28;20376;-54
2022/05/29 11:26:04;;;;;;;11.93;3.60;;;25.00;99.90;;;;;;4951054;28;20019;-54
2022/05/29 11:28:51;;;;;;;15.10;6.13;;;24.90;99.90;;;;;;4934118;29;20031;-54
2022/05/29 11:31:44;;;;;;;16.45;6.43;;;24.70;99.90;;;;;;4953254;28;20039;-54
2022/05/29 11:34:37;;;;;;;11.85;2.88;;;24.70;99.90;;;;;;4950839;28;20038;-54
2022/05/29 11:37:27;;;;;;;9.18;2.42;;;24.70;99.90;;;;;;4950712;29;20459;-54
2022/05/29 11:40:17;;;;;;;11.77;3.97;;;24.80;99.90;;;;;;4933832;29;20034;-54
2022/05/29 11:42:54;;;;;;;10.88;3.33;;;24.80;99.90;;;;;;4952286;29;20031;-56
2022/05/29 11:51:07;;;;;;;8.77;2.67;;;24.80;99.90;;;;;;4952414;28;20035;-53
2022/05/29 11:51:18;;;;;;;12.85;4.53;;;24.80;99.90;;;;;;4947981;28;20090;-53
2022/05/29 11:54:01;;;;;;;13.40;4.88;;;24.80;99.90;;;;;;4947260;28;20036;-53
2022/05/29 11:56:36;;;;;;;14.43;5.93;;;24.90;99.90;;;;;;4951570;28;20379;-51
2022/05/29 11:59:32;;;;;;;11.05;6.13;;;24.70;99.90;;;;;;4949323;28;20118;-52
2022/05/29 12:02:13;;;;;;;13.90;6.10;;;24.70;99.90;;;;;;4960944;28;20491;-53
2022/05/29 12:04:44;;;;;;;27.08;6.22;;;24.80;99.90;;;;;;4963632;28;20022;-49
2022/05/29 12:07:18;;;;;;;16.50;7.57;;;24.70;99.90;;;;;;4961482;28;20023;-51
2022/05/29 12:09:57;;;;;;;17.27;8.25;;;24.80;99.90;;;;;;4957720;28;20081;-54
2022/05/29 12:12:38;;;;;;;11.90;4.95;;;24.80;99.90;;;;;;4965748;28;20122;-52
2022/05/29 12:15:09;;;;;;;13.50;5.30;;;24.90;99.90;;;;;;4966941;28;20391;-52
2022/05/29 12:17:46;;;;;;;23.80;6.07;;;25.00;99.90;;;;;;4958725;28;20035;-52
2022/05/29 12:20:46;;;;;;;11.68;4.10;;;24.80;99.90;;;;;;4954716;28;20134;-51
2022/05/29 12:23:15;;;;;;;15.65;6.40;;;24.80;99.90;;;;;;4955087;28;20038;-51
2022/05/29 12:25:57;;;;;;;11.68;4.60;;;24.80;99.90;;;;;;4956223;28;20031;-51
2022/05/29 12:29:00;;;;;;;13.60;6.63;;;24.80;99.90;;;;;;4955608;28;20035;-52
2022/05/29 12:31:34;;;;;;;14.65;5.75;;;24.90;99.90;;;;;;4943007;28;20043;-51
2022/05/29 12:34:00;;;;;;;30.50;8.82;;;25.00;99.90;;;;;;4942897;29;20436;-51
2022/05/29 12:36:40;;;;;;;16.20;7.55;;;24.90;99.90;;;;;;4970316;28;20097;-52
2022/05/29 12:39:35;;;;;;;15.00;6.93;;;24.90;99.90;;;;;;4942810;29;20027;-51
2022/05/29 12:42:27;;;;;;;33.85;22.80;;;24.70;99.90;;;;;;4955601;28;20062;-50
2022/05/29 12:45:21;;;;;;;17.67;8.90;;;24.70;99.90;;;;;;4955526;28;20384;-51
2022/05/29 12:48:00;;;;;;;13.27;4.05;;;24.70;99.90;;;;;;4955211;28;20019;-50
2022/05/29 12:50:48;;;;;;;12.98;4.22;;;24.70;99.90;;;;;;4955067;28;20110;-49
2022/05/29 12:53:47;;;;;;;12.35;5.50;;;24.70;99.90;;;;;;4950488;28;20035;-49
2022/05/29 12:56:56;;;;;;;14.02;4.28;;;24.60;99.90;;;;;;4959728;28;20027;-51
2022/05/29 12:59:58;;;;;;;15.98;3.42;;;24.50;99.90;;;;;;4944038;29;20042;-51
2022/05/29 13:02:41;;;;;;;9.45;2.90;;;24.50;99.90;;;;;;4951563;29;20079;-51
2022/05/29 13:05:35;;;;;;;11.48;4.15;;;24.50;99.90;;;;;;4955303;28;20023;-50
2022/05/29 13:08:01;;;;;;;17.35;5.80;;;24.60;99.90;;;;;;4955225;28;20089;-50
2022/05/29 13:10:33;;;;;;;17.48;7.82;;;24.50;99.90;;;;;;4953693;28;20027;-51
2022/05/29 13:13:12;;;;;;;11.43;3.10;;;24.60;99.90;;;;;;4950861;28;20086;-50
2022/05/29 13:15:39;;;;;;;11.23;3.45;;;24.70;99.90;;;;;;4940998;29;20483;-51
2022/05/29 13:18:07;;;;;;;9.07;2.67;;;24.70;99.90;;;;;;4967543;28;20031;-51
2022/05/29 13:21:11;;;;;;;19.83;4.60;;;24.80;99.90;;;;;;4952896;29;20026;-52
2022/05/29 13:23:44;;;;;;;8.88;3.20;;;24.90;99.90;;;;;;4952985;28;20031;-51
2022/05/29 13:26:11;;;;;;;11.48;4.38;;;24.90;99.90;;;;;;4967869;28;20023;-49
2022/05/29 13:28:41;;;;;;;;;;;25.00;99.90;;;;;;4953390;29;20059;-49
2022/05/29 13:31:18;;;;;;;14.93;4.22;;;25.00;99.90;;;;;;4951597;28;20013;-51
2022/05/29 13:33:48;;;;;;;13.70;5.43;;;25.00;99.90;;;;;;4949823;28;20035;-51
2022/05/29 13:36:47;;;;;;;18.65;4.80;;;25.00;99.90;;;;;;4953582;28;20428;-50
2022/05/29 13:39:28;;;;;;;14.13;3.70;;;25.10;99.90;;;;;;4953320;28;20038;-51
2022/05/29 13:42:10;;;;;;;12.15;3.30;;;25.20;99.90;;;;;;4954658;28;20031;-50
2022/05/29 13:44:40;;;;;;;12.75;3.30;;;25.30;99.90;;;;;;4954101;28;20483;-51
2022/05/29 13:47:18;;;;;;;9.77;2.30;;;25.30;99.90;;;;;;4954209;28;20446;-51